createdAt,value
2018-04-07T03:32:34.922Z,22.90
2018-04-07T03:35:08.591Z,19.30
2018-04-07T03:37:43.232Z,22.95
2018-04-07T03:40:17.111Z,18.62
2018-04-07T03:42:50.980Z,20.10
2018-04-07T03:45:24.580Z,17.40
2018-04-07T03:47:59.156Z,17.58
2018-04-07T03:50:32.916Z,17.58
2018-04-07T03:53:06.684Z,17.95
2018-04-07T03:55:40.798Z,17.02
2018-04-07T03:58:34.572Z,18.58
2018-04-07T04:01:08.347Z,18.10
2018-04-07T04:03:42.328Z,20.85
2018-04-07T04:06:15.995Z,18.10
2018-04-07T04:08:50.608Z,21.30
2018-04-07T04:11:24.338Z,16.20
2018-04-07T04:13:58.195Z,17.75
2018-04-07T04:16:31.924Z,19.25
2018-04-07T04:19:06.456Z,19.15
2018-04-07T04:21:40.157Z,20.88
2018-04-07T04:24:14.041Z,16.75
2018-04-07T04:26:47.896Z,16.75
2018-04-07T04:29:21.708Z,18.20
2018-04-07T04:31:56.402Z,18.60
2018-04-07T04:34:30.245Z,17.67
2018-04-07T04:37:04.036Z,20.42
2018-04-07T04:39:37.741Z,17.92
2018-04-07T04:42:11.485Z,18.85
2018-04-07T04:44:45.228Z,18.37
2018-04-07T04:47:19.029Z,16.40
2018-04-07T04:49:53.667Z,19.02
2018-04-07T04:52:27.542Z,16.50
2018-04-07T04:55:01.635Z,17.65
2018-04-07T04:57:35.648Z,15.68
2018-04-07T05:00:10.954Z,17.27
2018-04-07T05:02:44.751Z,18.90
2018-04-07T05:05:18.584Z,17.20
2018-04-07T05:07:52.399Z,19.73
2018-04-07T05:10:26.244Z,16.35
2018-04-07T05:13:00.060Z,17.55
2018-04-07T05:15:33.771Z,19.17
2018-04-07T05:18:07.483Z,17.75
2018-04-07T05:20:41.403Z,15.20
2018-04-07T05:23:15.135Z,18.25
2018-04-07T05:25:48.880Z,17.12
2018-04-07T05:28:22.629Z,18.80
2018-04-07T05:30:56.388Z,18.83
2018-04-07T05:33:30.159Z,18.23
2018-04-07T05:36:04.440Z,17.05
2018-04-07T05:38:38.110Z,17.27
2018-04-07T05:41:11.973Z,16.70
2018-04-07T05:43:46.528Z,16.00
2018-04-07T05:46:20.302Z,21.65
2018-04-07T05:48:54.880Z,19.80
2018-04-07T05:51:29.375Z,15.05
2018-04-07T05:54:03.080Z,17.23
2018-04-07T05:56:37.176Z,16.27
2018-04-07T05:59:11.860Z,15.77
2018-04-07T06:01:45.459Z,22.37
2018-04-07T06:04:19.443Z,18.15
2018-04-07T06:06:53.132Z,18.73
2018-04-07T06:09:27.696Z,17.67
2018-04-07T06:12:02.262Z,22.60
2018-04-07T06:14:37.025Z,18.05
2018-04-07T06:17:10.836Z,20.92
2018-04-07T06:19:44.964Z,20.08
2018-04-07T06:22:18.617Z,19.17
2018-04-07T06:24:52.528Z,18.23
2018-04-07T06:27:26.287Z,16.73
2018-04-07T06:30:00.156Z,20.83
2018-04-07T06:32:33.997Z,20.35
2018-04-07T06:35:07.812Z,25.48
2018-04-07T06:37:41.616Z,19.25
2018-04-07T06:40:16.160Z,23.67
2018-04-07T06:42:50.003Z,19.25
2018-04-07T06:45:24.860Z,21.48
2018-04-07T06:47:58.532Z,19.92
2018-04-07T06:50:33.187Z,16.23
2018-04-07T06:53:06.907Z,17.42
2018-04-07T06:55:40.791Z,19.60
2018-04-07T06:58:14.611Z,17.33
2018-04-07T07:00:49.262Z,18.80
2018-04-07T07:03:22.963Z,18.92
2018-04-07T07:05:57.882Z,22.80
2018-04-07T07:08:31.576Z,20.88
2018-04-07T07:11:05.337Z,17.30
2018-04-07T07:13:39.989Z,41.20
2018-04-07T07:16:14.564Z,19.12
2018-04-07T07:18:49.034Z,21.27
2018-04-07T07:21:22.972Z,20.27
2018-04-07T07:23:58.300Z,18.48
2018-04-07T07:26:32.044Z,22.05
2018-04-07T07:29:06.700Z,19.77
2018-04-07T07:31:40.624Z,19.98
2018-04-07T07:34:14.477Z,34.40
2018-04-07T07:36:48.304Z,20.08
2018-04-07T07:39:22.876Z,19.87
2018-04-07T07:41:57.082Z,18.87
2018-04-07T07:44:31.629Z,19.33
2018-04-07T07:47:05.318Z,20.65
2018-04-07T07:49:39.152Z,18.98
2018-04-07T07:52:13.671Z,19.80
2018-04-07T07:54:47.354Z,19.00
2018-04-07T07:57:21.432Z,22.83
2018-04-07T07:59:55.211Z,17.62
2018-04-07T08:02:29.026Z,21.73
2018-04-07T08:05:02.781Z,18.33
2018-04-07T08:07:36.685Z,18.77
2018-04-07T08:10:10.473Z,17.50
2018-04-07T08:12:44.350Z,19.05
2018-04-07T08:15:18.022Z,16.50
2018-04-07T08:17:52.731Z,18.60
2018-04-07T08:20:27.484Z,17.17
2018-04-07T08:23:01.419Z,20.95
2018-04-07T08:25:36.003Z,16.67
2018-04-07T08:28:09.834Z,17.80
2018-04-07T08:30:44.418Z,16.12
2018-04-07T08:33:18.103Z,19.62
2018-04-07T08:35:53.520Z,21.23
2018-04-07T08:38:27.402Z,17.15
2018-04-07T08:41:01.288Z,16.67
2018-04-07T08:43:35.046Z,17.08
2018-04-07T08:46:08.914Z,17.60
2018-04-07T08:48:42.824Z,16.33
2018-04-07T08:51:17.692Z,18.00
2018-04-07T08:53:51.509Z,20.90
2018-04-07T08:56:25.284Z,15.30
2018-04-07T08:58:59.875Z,19.27
2018-04-07T09:01:34.416Z,16.90
2018-04-07T09:04:08.006Z,17.20
2018-04-07T09:06:43.369Z,16.83
2018-04-07T09:09:17.947Z,16.27
2018-04-07T09:11:51.674Z,17.30
2018-04-07T09:14:25.502Z,16.80
2018-04-07T09:16:59.229Z,18.00
2018-04-07T09:19:33.105Z,15.40
2018-04-07T09:22:06.963Z,16.40
2018-04-07T09:24:40.728Z,24.30
2018-04-07T09:27:15.686Z,17.50
2018-04-07T09:29:49.542Z,17.27
2018-04-07T09:32:23.444Z,16.30
2018-04-07T09:34:57.869Z,15.70
2018-04-07T09:37:31.689Z,15.83
2018-04-07T09:40:05.528Z,16.63
2018-04-07T09:42:39.458Z,15.30
2018-04-07T09:45:14.047Z,15.50
2018-04-07T09:47:47.857Z,14.70
2018-04-07T09:50:21.656Z,14.97
2018-04-07T09:52:56.267Z,14.37
2018-04-07T09:55:30.788Z,15.57
2018-04-07T09:58:04.533Z,15.10
2018-04-07T10:00:38.463Z,14.43
2018-04-07T10:03:12.948Z,15.03
2018-04-07T10:05:46.693Z,15.97
2018-04-07T10:08:21.165Z,18.67
2018-04-07T10:10:54.864Z,15.60
2018-04-07T10:13:28.822Z,15.37
2018-04-07T10:16:02.655Z,17.07
2018-04-07T10:18:36.421Z,13.90
2018-04-07T10:21:10.244Z,15.20
2018-04-07T10:23:44.789Z,14.13
2018-04-07T10:26:18.585Z,15.77
2018-04-07T10:28:52.305Z,14.20
2018-04-07T10:31:26.148Z,14.93
2018-04-07T10:33:59.952Z,14.83
2018-04-07T10:36:33.856Z,14.60
2018-04-07T10:39:07.556Z,14.93
2018-04-07T10:41:41.496Z,14.70
2018-04-07T10:44:15.277Z,14.00
2018-04-07T10:46:49.060Z,14.77
2018-04-07T10:49:22.767Z,13.60
2018-04-07T10:51:57.892Z,14.50
2018-04-07T10:54:31.701Z,13.10
2018-04-07T10:57:05.977Z,14.43
2018-04-07T10:59:39.764Z,16.07
2018-04-07T11:02:14.361Z,13.60
2018-04-07T11:04:48.175Z,13.00
2018-04-07T11:07:21.999Z,12.13
2018-04-07T11:09:56.584Z,12.83
2018-04-07T11:12:31.219Z,11.23
2018-04-07T11:15:04.941Z,11.40
2018-04-07T11:17:39.833Z,11.90
2018-04-07T11:20:13.689Z,12.03
2018-04-07T11:22:47.514Z,13.60
2018-04-07T11:25:22.107Z,11.80
2018-04-07T11:27:56.271Z,12.93
2018-04-07T11:30:29.989Z,12.37
2018-04-07T11:33:03.847Z,14.20
2018-04-07T11:35:38.631Z,20.60
2018-04-07T11:38:12.569Z,14.50
2018-04-07T11:40:47.088Z,11.90
2018-04-07T11:43:20.880Z,14.50
2018-04-07T11:45:54.601Z,14.13
2018-04-07T11:48:28.403Z,14.10
2018-04-07T11:51:02.928Z,13.87
2018-04-07T11:53:36.728Z,14.73
2018-04-07T11:56:11.890Z,13.60
2018-04-07T11:58:45.631Z,12.37
2018-04-07T12:01:19.968Z,12.70
2018-04-07T12:03:53.870Z,13.23
2018-04-07T12:06:27.751Z,14.20
2018-04-07T12:09:02.292Z,15.80
2018-04-07T12:11:36.227Z,15.83
2018-04-07T12:14:09.932Z,14.73
2018-04-07T12:16:43.831Z,11.93
2018-04-07T12:19:18.693Z,14.50
2018-04-07T12:21:53.285Z,12.73
2018-04-07T12:24:27.048Z,11.70
2018-04-07T12:27:01.120Z,14.00
2018-04-07T12:29:35.519Z,14.50
2018-04-07T12:32:10.198Z,12.03
2018-04-07T12:34:44.676Z,14.90
2018-04-07T12:37:18.578Z,16.20
2018-04-07T12:39:52.353Z,15.07
2018-04-07T12:42:26.251Z,34.60
2018-04-07T12:45:00.100Z,12.30
2018-04-07T12:47:34.016Z,14.63
2018-04-07T12:50:08.528Z,12.57
2018-04-07T12:52:42.285Z,10.10
2018-04-07T12:55:16.863Z,10.50
2018-04-07T12:57:50.628Z,10.40
2018-04-07T13:00:24.454Z,11.17
2018-04-07T13:02:59.610Z,13.73
2018-04-07T13:05:33.852Z,13.40
2018-04-07T13:08:07.696Z,14.33
2018-04-07T13:10:42.282Z,12.23
2018-04-07T13:13:16.009Z,16.63
2018-04-07T13:15:49.789Z,12.03
2018-04-07T13:18:23.596Z,11.50
2018-04-07T13:20:57.391Z,13.97
2018-04-07T13:23:31.146Z,13.93
2018-04-07T13:26:05.096Z,13.30
2018-04-07T13:28:38.965Z,12.67
2018-04-07T13:31:12.686Z,14.97
2018-04-07T13:33:46.840Z,17.53
2018-04-07T13:36:20.666Z,14.50
2018-04-07T13:38:54.580Z,14.03
2018-04-07T13:41:28.348Z,14.00
2018-04-07T13:44:02.149Z,13.90
2018-04-07T13:46:35.922Z,16.30
2018-04-07T13:49:09.798Z,13.97
2018-04-07T13:51:44.307Z,14.37
2018-04-07T13:54:18.244Z,15.53
2018-04-07T13:56:51.926Z,14.07
2018-04-07T13:59:25.772Z,14.13
2018-04-07T14:01:59.936Z,14.83
2018-04-07T14:04:34.445Z,12.17
2018-04-07T14:07:08.579Z,12.53
2018-04-07T14:09:42.399Z,12.07
2018-04-07T14:12:17.317Z,10.43
2018-04-07T14:14:50.909Z,14.23
2018-04-07T14:17:24.978Z,13.57
2018-04-07T14:19:58.688Z,13.40
2018-04-07T14:22:32.435Z,13.33
2018-04-07T14:25:06.268Z,13.50
2018-04-07T14:27:40.079Z,10.27
2018-04-07T14:30:13.922Z,12.43
2018-04-07T14:32:48.264Z,12.60
2018-04-07T14:35:22.113Z,13.20
2018-04-07T14:37:55.976Z,10.23
2018-04-07T14:40:30.590Z,14.60
2018-04-07T14:43:04.441Z,14.07
2018-04-07T14:45:38.269Z,12.17
2018-04-07T14:48:12.075Z,11.30
2018-04-07T14:50:45.932Z,11.37
2018-04-07T14:53:20.568Z,10.70
2018-04-07T14:55:54.262Z,11.10
2018-04-07T14:58:28.854Z,10.03
2018-04-07T15:01:03.448Z,11.60
2018-04-07T15:03:37.752Z,9.10
2018-04-07T15:06:11.447Z,8.80
2018-04-07T15:08:46.125Z,10.70
2018-04-07T15:11:20.025Z,11.90
2018-04-07T15:13:53.963Z,7.63
2018-04-07T15:16:27.996Z,9.10
2018-04-07T15:19:01.837Z,7.43
2018-04-07T15:21:36.383Z,6.97
2018-04-07T15:24:11.037Z,11.33
2018-04-07T15:26:45.644Z,12.50
2018-04-07T15:29:19.528Z,7.27
2018-04-07T15:31:53.476Z,10.70
2018-04-07T15:34:27.384Z,8.70
2018-04-07T15:37:01.100Z,8.17
2018-04-07T15:39:35.709Z,7.70
2018-04-07T15:42:09.601Z,8.73
2018-04-07T15:44:43.404Z,10.70
2018-04-07T15:47:17.255Z,10.00
2018-04-07T15:49:51.056Z,8.87
2018-04-07T15:52:24.912Z,6.80
2018-04-07T15:54:59.480Z,6.13
2018-04-07T15:57:34.043Z,7.47
2018-04-07T16:00:07.829Z,7.47
2018-04-07T16:02:42.437Z,7.30
2018-04-07T16:05:16.221Z,9.00
2018-04-07T16:07:51.071Z,8.57
2018-04-07T16:10:24.784Z,11.10
2018-04-07T16:12:59.312Z,7.87
2018-04-07T16:15:33.123Z,8.97
2018-04-07T16:18:07.005Z,8.03
2018-04-07T16:20:41.618Z,7.80
2018-04-07T16:23:15.661Z,7.67
2018-04-07T16:25:50.283Z,9.37
2018-04-07T16:28:24.132Z,7.20
2018-04-07T16:30:58.676Z,9.27
2018-04-07T16:33:32.460Z,13.20
2018-04-07T16:36:07.017Z,8.30
2018-04-07T16:38:41.544Z,10.30
2018-04-07T16:41:15.271Z,9.03
2018-04-07T16:43:49.060Z,9.17
2018-04-07T16:46:23.676Z,15.97
2018-04-07T16:48:58.321Z,8.63
2018-04-07T16:51:32.028Z,10.20
2018-04-07T16:54:05.731Z,8.17
2018-04-07T16:56:39.575Z,5.50
2018-04-07T16:59:13.389Z,8.20
2018-04-07T17:01:47.217Z,6.83
2018-04-07T17:04:21.893Z,5.70
2018-04-07T17:06:56.482Z,7.70
2018-04-07T17:09:30.257Z,7.43
2018-04-07T17:12:04.104Z,6.60
2018-04-07T17:14:39.469Z,7.80
2018-04-07T17:17:13.274Z,5.63
2018-04-07T17:19:47.042Z,14.17
2018-04-07T17:22:21.473Z,8.43
2018-04-07T17:24:55.362Z,9.23
2018-04-07T17:27:29.924Z,13.53
2018-04-07T17:30:04.544Z,9.43
2018-04-07T17:32:38.269Z,10.43
2018-04-07T17:35:12.915Z,8.70
2018-04-07T17:37:46.684Z,27.33
2018-04-07T17:40:21.346Z,13.60
2018-04-07T17:42:55.108Z,8.43
2018-04-07T17:45:29.738Z,8.80
2018-04-07T17:48:03.557Z,10.43
2018-04-07T17:50:37.500Z,10.05
2018-04-07T17:53:11.305Z,11.73
2018-04-07T17:55:45.788Z,17.27
2018-04-07T17:58:19.516Z,15.27
2018-04-07T18:00:53.376Z,31.77
2018-04-07T18:03:27.988Z,41.97
2018-04-07T18:06:01.845Z,17.25
2018-04-07T18:08:36.543Z,22.02
2018-04-07T18:11:11.197Z,12.63
2018-04-07T18:13:45.096Z,12.77
2018-04-07T18:16:19.973Z,13.18
2018-04-07T18:18:54.484Z,11.85
2018-04-07T18:21:28.274Z,21.65
2018-04-07T18:24:02.769Z,15.65
2018-04-07T18:26:36.569Z,12.95
2018-04-07T18:29:11.186Z,14.93
2018-04-07T18:31:45.040Z,11.77
2018-04-07T18:34:18.945Z,17.55
2018-04-07T18:36:52.810Z,14.20
2018-04-07T18:39:26.539Z,13.30
2018-04-07T18:42:01.156Z,12.73
2018-04-07T18:44:34.916Z,14.52
2018-04-07T18:47:08.688Z,12.18
2018-04-07T18:49:43.169Z,11.70
2018-04-07T18:52:17.408Z,13.18
2018-04-07T18:54:51.107Z,13.05
2018-04-07T18:57:25.607Z,15.88
2018-04-07T18:59:59.754Z,13.10
2018-04-07T19:02:33.720Z,12.73
2018-04-07T19:05:07.516Z,13.68
2018-04-07T19:07:41.348Z,12.50
2018-04-07T19:10:15.898Z,13.20
2018-04-07T19:12:49.618Z,13.05
2018-04-07T19:15:23.444Z,13.70
2018-04-07T19:17:58.007Z,13.85
2018-04-07T19:20:31.779Z,14.23
2018-04-07T19:23:05.556Z,12.02
2018-04-07T19:25:39.435Z,16.73
2018-04-07T19:28:14.079Z,14.15
2018-04-07T19:30:48.601Z,14.65
2018-04-07T19:33:22.322Z,15.65
2018-04-07T19:35:56.233Z,16.25
2018-04-07T19:38:30.716Z,13.62
2018-04-07T19:41:04.704Z,17.48
2018-04-07T19:43:39.242Z,14.90
2018-04-07T19:46:13.007Z,12.93
2018-04-07T19:48:47.578Z,12.45
2018-04-07T19:51:21.407Z,13.80
2018-04-07T19:53:55.231Z,17.33
2018-04-07T19:56:29.335Z,13.27
2018-04-07T19:59:03.827Z,13.50
2018-04-07T20:01:38.382Z,14.43
2018-04-07T20:04:12.057Z,15.05
2018-04-07T20:06:47.429Z,14.90
2018-04-07T20:09:21.253Z,13.98
2018-04-07T20:11:56.225Z,12.75
2018-04-07T20:14:29.861Z,14.32
2018-04-07T20:17:04.087Z,14.43
2018-04-07T20:19:37.809Z,13.13
2018-04-07T20:22:11.941Z,13.80
2018-04-07T20:24:46.647Z,15.15
2018-04-07T20:27:20.470Z,13.45
2018-04-07T20:29:54.345Z,14.18
2018-04-07T20:32:28.080Z,12.88
2018-04-07T20:35:02.739Z,13.10
2018-04-07T20:37:37.487Z,13.38
2018-04-07T20:40:11.435Z,13.93
2018-04-07T20:42:46.020Z,12.30
2018-04-07T20:45:19.970Z,15.18
2018-04-07T20:47:53.801Z,15.57
2018-04-07T20:50:27.547Z,13.55
2018-04-07T20:53:01.385Z,17.20
2018-04-07T20:55:35.965Z,14.68
2018-04-07T20:58:10.217Z,13.75
